createdAt,value
2017-07-27T00:00:14.383Z,23.83
2017-07-27T00:01:23.852Z,23.94
2017-07-27T00:02:33.783Z,23.85
2017-07-27T00:03:43.415Z,23.85
2017-07-27T00:04:53.051Z,23.83
2017-07-27T00:06:02.383Z,23.79
2017-07-27T00:07:12.309Z,23.75
2017-07-27T00:08:21.944Z,23.79
2017-07-27T00:09:31.883Z,23.79
2017-07-27T00:10:42.128Z,23.75
2017-07-27T00:11:51.759Z,23.78
2017-07-27T00:13:01.985Z,23.87
2017-07-27T00:14:11.918Z,23.85
2017-07-27T00:15:21.548Z,23.88
2017-07-27T00:16:31.783Z,23.91
2017-07-27T00:17:41.718Z,23.88
2017-07-27T00:18:52.120Z,23.9
2017-07-27T00:20:02.385Z,23.84
2017-07-27T00:21:12.341Z,23.88
2017-07-27T00:22:21.979Z,23.97
2017-07-27T00:23:32.214Z,23.91
2017-07-27T00:24:41.932Z,23.88
2017-07-27T00:25:51.860Z,23.85
2017-07-27T00:27:01.798Z,23.85
2017-07-27T00:28:11.737Z,23.95
2017-07-27T00:29:21.377Z,23.95
2017-07-27T00:30:31.456Z,23.91
2017-07-27T00:31:41.391Z,23.95
2017-07-27T00:32:51.648Z,24.02
2017-07-27T00:34:01.592Z,24.06
2017-07-27T00:35:11.528Z,24.06
2017-07-27T00:36:21.480Z,24.02
2017-07-27T00:37:31.704Z,24.09
2017-07-27T00:38:41.339Z,24.13
2017-07-27T00:39:51.277Z,24.06
2017-07-27T00:41:01.519Z,24.1
2017-07-27T00:42:10.991Z,24.09
2017-07-27T00:43:21.234Z,24.06
2017-07-27T00:44:31.489Z,24.12
2017-07-27T00:45:41.426Z,24.16
2017-07-27T00:46:51.673Z,24.05
2017-07-27T00:48:01.853Z,24.03
2017-07-27T00:49:11.780Z,24.03
2017-07-27T00:50:21.729Z,24.02
2017-07-27T00:51:31.670Z,24
2017-07-27T00:52:41.909Z,24
2017-07-27T00:53:51.981Z,23.95
2017-07-27T00:55:02.210Z,23.98
2017-07-27T00:56:12.131Z,24.05
2017-07-27T00:57:22.370Z,23.98
2017-07-27T00:58:32.637Z,24.05
2017-07-27T00:59:42.620Z,24.02
2017-07-27T01:00:52.255Z,24.05
2017-07-27T01:02:02.204Z,24.09
2017-07-27T01:03:12.447Z,24.08
2017-07-27T01:04:21.791Z,23.97
2017-07-27T01:05:31.715Z,24.08
2017-07-27T01:06:41.649Z,24.09
2017-07-27T01:07:51.915Z,24.1
2017-07-27T01:09:02.141Z,24.06
2017-07-27T01:10:12.081Z,24.02
2017-07-27T01:11:22.615Z,24.03
2017-07-27T01:12:32.854Z,24.02
2017-07-27T01:13:42.497Z,23.94
2017-07-27T01:14:51.829Z,23.93
2017-07-27T01:16:01.782Z,24.09
2017-07-27T01:17:11.708Z,24.02
2017-07-27T01:18:21.330Z,23.91
2017-07-27T01:19:31.267Z,24.02
2017-07-27T01:20:40.891Z,23.91
2017-07-27T01:21:50.834Z,23.98
2017-07-27T01:23:00.902Z,23.91
2017-07-27T01:24:11.140Z,23.94
2017-07-27T01:25:21.452Z,23.94
2017-07-27T01:26:30.781Z,23.91
2017-07-27T01:27:40.715Z,23.93
2017-07-27T01:28:50.790Z,23.91
2017-07-27T01:30:00.444Z,23.87
2017-07-27T01:31:10.455Z,23.94
2017-07-27T01:32:20.410Z,23.95
2017-07-27T01:33:30.662Z,23.94
2017-07-27T01:34:40.657Z,23.94
2017-07-27T01:35:50.902Z,23.83
2017-07-27T01:37:00.558Z,23.87
2017-07-27T01:38:10.791Z,23.84
2017-07-27T01:39:20.412Z,23.84
2017-07-27T01:40:30.790Z,23.8
2017-07-27T01:41:40.424Z,23.76
2017-07-27T01:42:50.359Z,23.87
2017-07-27T01:44:00.612Z,23.85
2017-07-27T01:45:10.862Z,23.8
2017-07-27T01:46:20.787Z,23.75
2017-07-27T01:47:31.026Z,23.78
2017-07-27T01:48:40.660Z,23.8
2017-07-27T01:49:50.889Z,23.78
2017-07-27T01:51:00.204Z,23.73
2017-07-27T01:52:09.659Z,23.85
2017-07-27T01:53:19.281Z,23.85
2017-07-27T01:54:28.894Z,23.68
2017-07-27T01:55:38.194Z,23.7
2017-07-27T01:56:47.828Z,23.76
2017-07-27T01:57:57.754Z,23.72
2017-07-27T01:59:07.384Z,23.8
2017-07-27T02:00:17.320Z,23.72
2017-07-27T02:01:27.244Z,23.69
2017-07-27T02:02:37.495Z,23.79
2017-07-27T02:03:47.230Z,23.65
2017-07-27T02:04:57.467Z,23.7
2017-07-27T02:06:07.385Z,23.76
2017-07-27T02:07:17.000Z,23.76
2017-07-27T02:08:26.932Z,23.76
2017-07-27T02:09:37.268Z,23.69
2017-07-27T02:10:47.512Z,23.72
2017-07-27T02:11:57.771Z,23.79
2017-07-27T02:13:07.386Z,23.66
2017-07-27T02:14:17.615Z,23.73
2017-07-27T02:15:27.697Z,23.63
2017-07-27T02:16:37.306Z,23.75
2017-07-27T02:17:47.225Z,23.66
2017-07-27T02:18:57.463Z,23.65
2017-07-27T02:20:07.709Z,23.65
2017-07-27T02:21:17.800Z,23.55
2017-07-27T02:22:27.423Z,23.61
2017-07-27T02:23:37.352Z,23.58
2017-07-27T02:24:47.271Z,23.61
2017-07-27T02:25:56.592Z,23.58
2017-07-27T02:27:06.520Z,23.53
2017-07-27T02:28:16.759Z,23.57
2017-07-27T02:29:26.684Z,23.46
2017-07-27T02:30:36.021Z,23.4
2017-07-27T02:31:45.967Z,23.46
2017-07-27T02:32:56.055Z,23.33
2017-07-27T02:34:06.307Z,23.35
2017-07-27T02:35:15.922Z,23.32
2017-07-27T02:36:25.841Z,23.28
2017-07-27T02:37:36.076Z,23.32
2017-07-27T02:38:45.491Z,23.27
2017-07-27T02:39:55.423Z,23.39
2017-07-27T02:41:05.362Z,23.28
2017-07-27T02:42:15.597Z,23.22
2017-07-27T02:43:25.851Z,23.15
2017-07-27T02:44:35.561Z,23.17
2017-07-27T02:45:45.797Z,23.15
2017-07-27T02:46:55.412Z,23.16
2017-07-27T02:48:05.333Z,23.1
2017-07-27T02:49:15.263Z,23.15
2017-07-27T02:50:25.355Z,23.2
2017-07-27T02:51:34.966Z,23.16
2017-07-27T02:52:45.208Z,23.17
2017-07-27T02:53:55.142Z,23.13
2017-07-27T02:55:04.451Z,23.19
2017-07-27T02:56:14.423Z,23.2
2017-07-27T02:57:24.348Z,23.25
2017-07-27T02:58:33.362Z,23.2
2017-07-27T02:59:43.294Z,23.25
2017-07-27T03:00:52.613Z,23.27
2017-07-27T03:02:02.852Z,23.22
2017-07-27T03:03:13.097Z,23.28
2017-07-27T03:04:22.707Z,23.23
2017-07-27T03:05:32.957Z,23.2
2017-07-27T03:06:42.902Z,23.22
2017-07-27T03:07:52.217Z,23.17
2017-07-27T03:09:02.465Z,23.2
2017-07-27T03:10:13.071Z,23.13
2017-07-27T03:11:23.032Z,23.15
2017-07-27T03:12:32.974Z,23.15
2017-07-27T03:13:43.375Z,23.17
2017-07-27T03:14:53.329Z,23.1
2017-07-27T03:16:03.274Z,23
2017-07-27T03:17:13.210Z,23.05
2017-07-27T03:18:23.450Z,23.07
2017-07-27T03:19:33.523Z,23.09
2017-07-27T03:20:43.758Z,23.02
2017-07-27T03:21:53.379Z,23.19
2017-07-27T03:23:03.001Z,23.13
2017-07-27T03:24:12.918Z,23.17
2017-07-27T03:25:22.638Z,23.13
2017-07-27T03:26:32.566Z,23.15
2017-07-27T03:27:42.819Z,23.23
2017-07-27T03:28:52.760Z,23.17
2017-07-27T03:30:02.693Z,23.19
2017-07-27T03:31:12.340Z,23.38
2017-07-27T03:32:21.969Z,23.33
2017-07-27T03:33:31.284Z,23.36
2017-07-27T03:34:40.600Z,23.42
2017-07-27T03:35:50.847Z,23.47
2017-07-27T03:37:01.094Z,23.55
2017-07-27T03:38:10.725Z,23.55
2017-07-27T03:39:20.657Z,23.51
2017-07-27T03:40:30.270Z,23.55
2017-07-27T03:41:39.897Z,23.58
2017-07-27T03:42:50.287Z,23.54
2017-07-27T03:44:00.222Z,23.57
2017-07-27T03:45:10.483Z,23.51
2017-07-27T03:46:20.711Z,23.6
2017-07-27T03:47:30.939Z,23.57
2017-07-27T03:48:40.614Z,23.6
2017-07-27T03:49:49.925Z,23.58
2017-07-27T03:51:00.182Z,23.65
2017-07-27T03:52:10.112Z,23.63
2017-07-27T03:53:19.736Z,23.66
2017-07-27T03:54:29.711Z,23.63
2017-07-27T03:55:39.329Z,23.75
2017-07-27T03:56:49.558Z,23.66
2017-07-27T03:57:59.808Z,23.66
2017-07-27T03:59:10.050Z,23.65
2017-07-27T04:00:19.974Z,23.61
2017-07-27T04:01:29.902Z,23.66
2017-07-27T04:02:39.539Z,23.66
2017-07-27T04:03:49.788Z,23.6
2017-07-27T04:04:59.715Z,23.69
2017-07-27T04:06:10.289Z,23.68
2017-07-27T04:07:19.590Z,23.84
2017-07-27T04:08:29.513Z,23.87
2017-07-27T04:09:39.743Z,23.85
2017-07-27T04:10:49.973Z,23.94
2017-07-27T04:11:59.909Z,23.9
2017-07-27T04:13:10.159Z,23.93
2017-07-27T04:14:19.469Z,23.94
2017-07-27T04:15:29.402Z,23.93
2017-07-27T04:16:39.641Z,23.95
2017-07-27T04:17:49.667Z,23.98
2017-07-27T04:18:59.297Z,23.98
2017-07-27T04:20:09.546Z,23.95
2017-07-27T04:21:19.482Z,24
2017-07-27T04:22:29.409Z,24.09
2017-07-27T04:23:39.785Z,23.98
2017-07-27T04:24:49.704Z,24.06
2017-07-27T04:25:59.929Z,24.12
2017-07-27T04:27:09.863Z,24.15
2017-07-27T04:28:20.094Z,24.13
2017-07-27T04:29:29.882Z,24.08
2017-07-27T04:30:39.511Z,24.1
2017-07-27T04:31:49.745Z,24.06
2017-07-27T04:32:59.661Z,24.03
2017-07-27T04:34:09.892Z,24.05
2017-07-27T04:35:19.819Z,23.95
2017-07-27T04:36:30.054Z,23.87
2017-07-27T04:37:39.990Z,23.87
2017-07-27T04:38:49.606Z,23.83
2017-07-27T04:39:59.528Z,23.79
2017-07-27T04:41:09.469Z,23.8
2017-07-27T04:42:19.422Z,23.78
2017-07-27T04:43:29.352Z,23.79
2017-07-27T04:44:39.282Z,23.79
2017-07-27T04:45:49.559Z,23.83
2017-07-27T04:46:59.659Z,23.69
2017-07-27T04:48:08.656Z,23.75
2017-07-27T04:49:18.885Z,23.65
2017-07-27T04:50:28.850Z,23.63
2017-07-27T04:51:38.160Z,23.58
2017-07-27T04:52:48.695Z,23.63
2017-07-27T04:53:58.329Z,23.65
2017-07-27T04:55:08.578Z,23.7
2017-07-27T04:56:18.817Z,23.68
2017-07-27T04:57:28.761Z,23.63
2017-07-27T04:58:39.006Z,23.63
2017-07-27T04:59:49.268Z,23.58
2017-07-27T05:00:58.888Z,23.6
2017-07-27T05:02:08.817Z,23.57
2017-07-27T05:03:19.097Z,23.61
2017-07-27T05:04:29.477Z,23.63
2017-07-27T05:05:39.398Z,23.75
2017-07-27T05:06:49.307Z,23.72
2017-07-27T05:07:59.538Z,23.79
2017-07-27T05:09:09.767Z,23.84
2017-07-27T05:10:20.040Z,23.88
2017-07-27T05:11:29.344Z,23.9
2017-07-27T05:12:38.954Z,23.87
2017-07-27T05:13:48.888Z,24
2017-07-27T05:14:59.116Z,24.03
2017-07-27T05:16:09.612Z,24
2017-07-27T05:17:19.546Z,24.03
2017-07-27T05:18:29.471Z,24.08
2017-07-27T05:19:39.399Z,24.27
2017-07-27T05:20:49.341Z,24.21
2017-07-27T05:21:59.003Z,24.21
2017-07-27T05:23:08.925Z,24.34
2017-07-27T05:24:18.871Z,24.43
2017-07-27T05:25:29.113Z,24.46
2017-07-27T05:26:39.022Z,24.42
2017-07-27T05:27:49.096Z,24.46
2017-07-27T05:28:58.780Z,24.47
2017-07-27T05:30:08.401Z,24.47
2017-07-27T05:31:18.638Z,24.55
2017-07-27T05:32:28.891Z,24.6
2017-07-27T05:33:38.652Z,24.65
2017-07-27T05:34:48.885Z,24.61
2017-07-27T05:35:59.111Z,24.67
2017-07-27T05:37:09.043Z,24.73
2017-07-27T05:38:18.969Z,24.81
2017-07-27T05:39:28.956Z,24.8
2017-07-27T05:40:38.880Z,24.8
2017-07-27T05:41:49.133Z,24.81
2017-07-27T05:42:59.064Z,24.78
2017-07-27T05:44:08.699Z,24.88
2017-07-27T05:45:18.930Z,24.95
2017-07-27T05:46:28.237Z,24.95
2017-07-27T05:47:37.863Z,24.93
2017-07-27T05:48:47.789Z,24.9
2017-07-27T05:49:57.730Z,24.99
2017-07-27T05:51:07.801Z,24.98
2017-07-27T05:52:17.414Z,25.05
2017-07-27T05:53:27.341Z,24.96
2017-07-27T05:54:37.259Z,25
2017-07-27T05:55:47.497Z,25.09
2017-07-27T05:56:57.519Z,25.08
2017-07-27T05:58:07.761Z,25.13
2017-07-27T05:59:17.688Z,25.06
2017-07-27T06:00:27.929Z,25.08
2017-07-27T06:01:37.863Z,25.1
2017-07-27T06:02:47.484Z,25.17
2017-07-27T06:03:57.436Z,25.13
2017-07-27T06:05:07.377Z,25.13
2017-07-27T06:06:17.313Z,25.14
2017-07-27T06:07:27.551Z,25.18
2017-07-27T06:08:37.343Z,25.17
2017-07-27T06:09:47.579Z,25.17
2017-07-27T06:10:57.487Z,25.18
2017-07-27T06:12:07.724Z,25.15
2017-07-27T06:13:17.664Z,25.14
2017-07-27T06:14:27.108Z,25.2
2017-07-27T06:15:36.737Z,25.18
2017-07-27T06:16:46.667Z,25.15
2017-07-27T06:17:56.594Z,25.14
2017-07-27T06:19:06.202Z,25.23
2017-07-27T06:20:15.979Z,25.18
2017-07-27T06:21:25.610Z,25.23
2017-07-27T06:22:35.539Z,25.25
2017-07-27T06:23:45.148Z,25.23
2017-07-27T06:24:55.395Z,25.17
2017-07-27T06:26:05.909Z,25.2
2017-07-27T06:27:15.851Z,25.18
2017-07-27T06:28:25.176Z,25.2
2017-07-27T06:29:34.515Z,25.2
2017-07-27T06:30:44.744Z,25.2
2017-07-27T06:31:54.819Z,25.27
2017-07-27T06:33:04.753Z,25.23
2017-07-27T06:34:14.675Z,25.24
2017-07-27T06:35:24.935Z,25.27
2017-07-27T06:36:34.873Z,25.24
2017-07-27T06:37:45.101Z,25.32
2017-07-27T06:38:55.348Z,25.24
2017-07-27T06:40:04.965Z,25.32
2017-07-27T06:41:14.884Z,25.28
2017-07-27T06:42:24.499Z,25.33
2017-07-27T06:43:34.111Z,25.38
2017-07-27T06:44:43.733Z,25.3
2017-07-27T06:45:53.657Z,25.38
2017-07-27T06:47:03.592Z,25.38
2017-07-27T06:48:13.539Z,25.32
2017-07-27T06:49:23.887Z,25.39
2017-07-27T06:50:34.131Z,25.36
2017-07-27T06:51:44.066Z,25.3
2017-07-27T06:52:54.004Z,25.42
2017-07-27T06:54:04.244Z,25.39
2017-07-27T06:55:14.618Z,25.39
2017-07-27T06:56:24.554Z,25.39
2017-07-27T06:57:34.789Z,25.45
2017-07-27T06:58:45.038Z,25.46
2017-07-27T06:59:54.976Z,25.46
2017-07-27T07:01:04.672Z,25.46
2017-07-27T07:02:14.924Z,25.47
2017-07-27T07:03:25.161Z,25.51
2017-07-27T07:04:35.087Z,25.57
2017-07-27T07:05:45.014Z,25.6
2017-07-27T07:06:55.337Z,25.57
2017-07-27T07:08:05.279Z,25.46
2017-07-27T07:09:14.610Z,25.5
2017-07-27T07:10:23.912Z,25.51
2017-07-27T07:11:33.538Z,25.57
2017-07-27T07:12:43.628Z,25.46
2017-07-27T07:13:53.573Z,25.52
2017-07-27T07:15:03.513Z,25.51
2017-07-27T07:16:13.146Z,25.52
2017-07-27T07:17:23.082Z,25.55
2017-07-27T07:18:33.065Z,25.51
2017-07-27T07:19:42.993Z,25.54
2017-07-27T07:20:53.224Z,25.47
2017-07-27T07:22:03.172Z,25.54
2017-07-27T07:23:13.129Z,25.5
2017-07-27T07:24:23.450Z,25.5
2017-07-27T07:25:33.370Z,25.47
2017-07-27T07:26:43.006Z,25.52
2017-07-27T07:27:52.681Z,25.55
2017-07-27T07:29:02.614Z,25.54
2017-07-27T07:30:13.166Z,25.57
2017-07-27T07:31:23.104Z,25.61
2017-07-27T07:32:33.028Z,25.57
2017-07-27T07:33:42.661Z,25.64
2017-07-27T07:34:52.587Z,25.64
2017-07-27T07:36:02.993Z,25.62
2017-07-27T07:37:12.932Z,25.61
2017-07-27T07:38:22.556Z,25.69
2017-07-27T07:39:32.798Z,25.6
2017-07-27T07:40:42.730Z,25.62
2017-07-27T07:41:53.131Z,25.58
2017-07-27T07:43:02.761Z,25.61
2017-07-27T07:44:12.690Z,25.55
2017-07-27T07:45:22.622Z,25.58
2017-07-27T07:46:32.571Z,25.55
2017-07-27T07:47:42.195Z,25.6
2017-07-27T07:48:52.130Z,25.52
2017-07-27T07:50:01.457Z,25.52
2017-07-27T07:51:11.091Z,25.52
2017-07-27T07:52:21.012Z,25.52
2017-07-27T07:53:30.650Z,25.5
2017-07-27T07:54:40.571Z,25.52
2017-07-27T07:55:50.210Z,25.45
2017-07-27T07:56:59.851Z,25.43
2017-07-27T07:58:09.476Z,25.51
2017-07-27T07:59:19.861Z,25.57
2017-07-27T08:00:29.342Z,25.45
2017-07-27T08:01:39.790Z,25.46
2017-07-27T08:02:49.524Z,25.5
2017-07-27T08:03:59.774Z,25.43
2017-07-27T08:05:09.871Z,25.52
2017-07-27T08:06:19.487Z,25.45
2017-07-27T08:07:29.725Z,25.5
2017-07-27T08:08:39.650Z,25.5
2017-07-27T08:09:49.605Z,25.47
2017-07-27T08:10:59.377Z,25.5
2017-07-27T08:12:09.316Z,25.38
2017-07-27T08:13:19.251Z,25.51
2017-07-27T08:14:28.568Z,25.46
2017-07-27T08:15:38.816Z,25.54
2017-07-27T08:16:49.247Z,25.54
2017-07-27T08:17:59.209Z,25.57
2017-07-27T08:19:09.147Z,25.47
2017-07-27T08:20:19.068Z,25.57
2017-07-27T08:21:28.706Z,25.46
2017-07-27T08:22:38.941Z,25.57
2017-07-27T08:23:49.170Z,25.57
2017-07-27T08:24:59.096Z,25.55
2017-07-27T08:26:09.329Z,25.54
2017-07-27T08:27:18.659Z,25.51
2017-07-27T08:28:28.331Z,25.5
2017-07-27T08:29:38.568Z,25.55
2017-07-27T08:30:48.201Z,25.54
2017-07-27T08:31:58.466Z,25.55
2017-07-27T08:33:08.702Z,25.62
2017-07-27T08:34:19.091Z,25.47
2017-07-27T08:35:29.022Z,25.58
2017-07-27T08:36:38.975Z,25.51
2017-07-27T08:37:49.222Z,25.58
2017-07-27T08:38:59.161Z,25.58
2017-07-27T08:40:08.783Z,25.52
2017-07-27T08:41:18.426Z,25.69
2017-07-27T08:42:28.356Z,25.6
2017-07-27T08:43:38.587Z,25.61
2017-07-27T08:44:48.232Z,25.65
2017-07-27T08:45:57.926Z,25.67
2017-07-27T08:47:07.847Z,25.64
2017-07-27T08:48:17.775Z,25.61
2017-07-27T08:49:27.725Z,25.64
2017-07-27T08:50:37.958Z,25.65
2017-07-27T08:51:47.725Z,25.67
2017-07-27T08:52:57.665Z,25.64
2017-07-27T08:54:07.606Z,25.65
2017-07-27T08:55:17.283Z,25.69
2017-07-27T08:56:27.210Z,25.64
2017-07-27T08:57:37.137Z,25.64
2017-07-27T08:58:46.137Z,25.58
2017-07-27T08:59:56.085Z,25.62
2017-07-27T09:01:06.321Z,25.62
2017-07-27T09:02:16.567Z,25.65
2017-07-27T09:03:26.350Z,25.64
2017-07-27T09:04:36.278Z,25.7
2017-07-27T09:05:46.505Z,25.77
2017-07-27T09:06:56.751Z,25.76
2017-07-27T09:08:06.371Z,25.92
2017-07-27T09:09:16.599Z,25.97
2017-07-27T09:10:25.917Z,25.92
2017-07-27T09:11:35.544Z,25.98
2017-07-27T09:12:45.783Z,25.95
2017-07-27T09:13:55.716Z,25.99
2017-07-27T09:15:05.515Z,26.09
2017-07-27T09:16:15.136Z,26.07
2017-07-27T09:17:25.397Z,26.1
2017-07-27T09:18:35.316Z,26.12
2017-07-27T09:19:45.563Z,26.12
2017-07-27T09:20:55.346Z,26.13
2017-07-27T09:22:05.281Z,26.06
2017-07-27T09:23:15.226Z,25.99
2017-07-27T09:24:25.145Z,26.07
2017-07-27T09:25:34.769Z,25.98
2017-07-27T09:26:45.302Z,26.01
2017-07-27T09:27:55.544Z,26.05
2017-07-27T09:29:05.801Z,26.05
2017-07-27T09:30:15.719Z,26.13
2017-07-27T09:31:25.655Z,26.09
2017-07-27T09:32:34.841Z,26.15
2017-07-27T09:33:44.454Z,26.07
2017-07-27T09:34:54.371Z,26.09
2017-07-27T09:36:04.004Z,26.12
2017-07-27T09:37:13.937Z,26.1
2017-07-27T09:38:24.017Z,26.13
2017-07-27T09:39:33.962Z,26.1
2017-07-27T09:40:44.212Z,26.13
2017-07-27T09:41:54.140Z,26.07
2017-07-27T09:43:04.369Z,26.13
2017-07-27T09:44:14.745Z,26.12
2017-07-27T09:45:24.984Z,26.13
2017-07-27T09:46:34.288Z,26.13
2017-07-27T09:47:43.906Z,26.12
2017-07-27T09:48:53.519Z,26.09
2017-07-27T09:50:03.876Z,26.1
2017-07-27T09:51:13.816Z,26.07
2017-07-27T09:52:23.143Z,26.13
2017-07-27T09:53:33.090Z,26.01
2017-07-27T09:54:42.404Z,26.13
2017-07-27T09:55:51.714Z,25.98
2017-07-27T09:57:01.656Z,26.06
2017-07-27T09:58:11.270Z,26.02
2017-07-27T09:59:21.242Z,25.97
2017-07-27T10:00:31.180Z,26.01
2017-07-27T10:01:41.567Z,25.97
2017-07-27T10:02:51.840Z,25.97
2017-07-27T10:04:02.099Z,26.01
2017-07-27T10:05:12.347Z,25.98
2017-07-27T10:06:22.608Z,25.97
2017-07-27T10:07:32.857Z,26.06
2017-07-27T10:08:42.792Z,25.95
2017-07-27T10:09:52.702Z,25.94
2017-07-27T10:11:02.954Z,25.97
2017-07-27T10:12:12.886Z,25.95
2017-07-27T10:13:23.385Z,25.91
2017-07-27T10:14:33.317Z,25.94
2017-07-27T10:15:43.251Z,25.92
2017-07-27T10:16:53.514Z,25.97
2017-07-27T10:18:03.153Z,25.95
2017-07-27T10:19:12.255Z,25.97
2017-07-27T10:20:22.495Z,25.9
2017-07-27T10:21:32.117Z,25.9
2017-07-27T10:22:42.353Z,25.92
2017-07-27T10:23:52.295Z,25.92
2017-07-27T10:25:02.694Z,25.98
2017-07-27T10:26:12.320Z,25.94
2017-07-27T10:27:21.647Z,25.98
2017-07-27T10:28:31.579Z,25.99
2017-07-27T10:29:40.586Z,26.02
2017-07-27T10:30:50.921Z,26.01
2017-07-27T10:32:00.855Z,26.07
2017-07-27T10:33:11.093Z,26.01
2017-07-27T10:34:21.318Z,25.98
2017-07-27T10:35:30.943Z,25.98
2017-07-27T10:36:40.880Z,26.01
2017-07-27T10:37:50.505Z,25.98
2017-07-27T10:39:00.451Z,25.99
2017-07-27T10:40:10.406Z,25.95
2017-07-27T10:41:20.094Z,26.06
2017-07-27T10:42:29.720Z,26.01
2017-07-27T10:43:39.348Z,25.99
2017-07-27T10:44:49.317Z,26.01
2017-07-27T10:45:59.296Z,25.99
2017-07-27T10:47:09.219Z,25.95
2017-07-27T10:48:19.451Z,25.99
2017-07-27T10:49:28.779Z,26.1
2017-07-27T10:50:38.729Z,25.97
2017-07-27T10:51:48.970Z,25.95
2017-07-27T10:52:59.212Z,26.01
2017-07-27T10:54:09.282Z,25.98
2017-07-27T10:55:19.210Z,25.98
2017-07-27T10:56:29.445Z,25.98
2017-07-27T10:57:39.394Z,25.95
2017-07-27T10:58:49.339Z,25.97
2017-07-27T10:59:59.321Z,25.9
2017-07-27T11:01:08.941Z,25.97
2017-07-27T11:02:18.878Z,25.91
2017-07-27T11:03:29.108Z,25.91
2017-07-27T11:04:39.023Z,25.95
2017-07-27T11:05:48.491Z,25.94
2017-07-27T11:06:58.108Z,25.88
2017-07-27T11:08:08.031Z,25.9
2017-07-27T11:09:17.970Z,25.9
2017-07-27T11:10:28.212Z,25.88
2017-07-27T11:11:38.144Z,25.9
2017-07-27T11:12:48.390Z,25.91
2017-07-27T11:13:58.023Z,25.88
2017-07-27T11:15:07.964Z,25.91
2017-07-27T11:16:18.195Z,25.91
2017-07-27T11:17:28.498Z,26.01
2017-07-27T11:18:38.757Z,25.9
2017-07-27T11:19:49.006Z,25.9
2017-07-27T11:20:59.243Z,25.91
2017-07-27T11:22:08.552Z,25.91
2017-07-27T11:23:18.949Z,25.91
2017-07-27T11:24:29.181Z,25.95
2017-07-27T11:25:38.815Z,25.98
2017-07-27T11:26:48.742Z,25.98
2017-07-27T11:27:58.357Z,25.97
2017-07-27T11:29:08.147Z,25.97
2017-07-27T11:30:18.086Z,25.95
2017-07-27T11:31:27.696Z,25.98
2017-07-27T11:32:37.653Z,25.98
2017-07-27T11:33:47.576Z,25.87
2017-07-27T11:34:57.503Z,25.91
2017-07-27T11:36:07.445Z,25.9
2017-07-27T11:37:17.686Z,25.87
2017-07-27T11:38:27.301Z,25.87
2017-07-27T11:39:37.216Z,25.83
2017-07-27T11:40:46.890Z,25.83
2017-07-27T11:41:57.147Z,25.79
2017-07-27T11:43:07.082Z,25.82
2017-07-27T11:44:17.327Z,25.79
2017-07-27T11:45:27.265Z,25.77
2017-07-27T11:46:37.270Z,25.73
2017-07-27T11:47:47.515Z,25.83
2017-07-27T11:48:57.132Z,25.76
2017-07-27T11:50:06.750Z,25.72
2017-07-27T11:51:16.673Z,25.77
2017-07-27T11:52:26.027Z,25.76
2017-07-27T11:53:36.259Z,25.8
2017-07-27T11:54:46.212Z,25.76
2017-07-27T11:55:56.143Z,25.8
2017-07-27T11:57:05.765Z,25.73
2017-07-27T11:58:15.862Z,25.77
2017-07-27T11:59:26.103Z,25.82
2017-07-27T12:00:35.733Z,25.83
2017-07-27T12:01:45.963Z,25.88
2017-07-27T12:02:55.892Z,25.82
2017-07-27T12:04:05.842Z,25.92
2017-07-27T12:05:15.783Z,25.85
2017-07-27T12:06:25.406Z,25.92
2017-07-27T12:07:35.039Z,25.91
2017-07-27T12:08:45.285Z,25.92
2017-07-27T12:09:55.372Z,25.88
2017-07-27T12:11:05.003Z,25.88
2017-07-27T12:12:14.650Z,25.8
2017-07-27T12:13:24.612Z,25.83
2017-07-27T12:14:34.242Z,25.82
2017-07-27T12:15:44.547Z,25.82
2017-07-27T12:16:54.523Z,25.79
2017-07-27T12:18:03.843Z,25.79
2017-07-27T12:19:13.785Z,25.83
2017-07-27T12:20:23.132Z,25.69
2017-07-27T12:21:32.909Z,25.73
2017-07-27T12:22:43.156Z,25.72
2017-07-27T12:23:53.074Z,25.65
2017-07-27T12:25:02.683Z,25.73
2017-07-27T12:26:12.313Z,25.67
2017-07-27T12:27:21.934Z,25.6
2017-07-27T12:28:32.164Z,25.64
2017-07-27T12:29:42.404Z,25.61
2017-07-27T12:30:52.020Z,25.64
2017-07-27T12:32:01.350Z,25.65
2017-07-27T12:33:10.862Z,25.6
2017-07-27T12:34:20.175Z,25.6
2017-07-27T12:35:29.479Z,25.57
2017-07-27T12:36:39.714Z,25.62
2017-07-27T12:37:49.045Z,25.67
2017-07-27T12:38:59.734Z,25.65
2017-07-27T12:40:09.665Z,25.61
2017-07-27T12:41:19.282Z,25.69
2017-07-27T12:42:29.216Z,25.67
2017-07-27T12:43:39.158Z,25.69
2017-07-27T12:44:49.475Z,25.72
2017-07-27T12:45:59.499Z,25.75
2017-07-27T12:47:09.501Z,25.69
2017-07-27T12:48:19.765Z,25.72
2017-07-27T12:49:30.036Z,25.7
2017-07-27T12:50:39.914Z,25.73
2017-07-27T12:51:49.653Z,25.73
2017-07-27T12:52:59.627Z,25.79
2017-07-27T12:54:09.572Z,25.75
2017-07-27T12:55:19.804Z,25.77
2017-07-27T12:56:29.429Z,25.75
2017-07-27T12:57:39.066Z,25.72
2017-07-27T12:58:49.319Z,25.69
2017-07-27T12:59:58.653Z,25.75
2017-07-27T13:01:08.635Z,25.72
2017-07-27T13:02:18.312Z,25.79
2017-07-27T13:03:28.320Z,25.76
2017-07-27T13:04:38.274Z,25.9
2017-07-27T13:05:47.623Z,25.82
2017-07-27T13:06:57.586Z,25.77
2017-07-27T13:08:07.667Z,25.73
2017-07-27T13:09:17.001Z,25.8
2017-07-27T13:10:26.660Z,25.76
2017-07-27T13:11:36.621Z,25.8
2017-07-27T13:12:46.921Z,25.8
2017-07-27T13:13:57.581Z,25.77
2017-07-27T13:15:07.223Z,25.77
2017-07-27T13:16:16.849Z,25.77
2017-07-27T13:17:27.091Z,25.79
2017-07-27T13:18:37.051Z,25.82
2017-07-27T13:19:46.791Z,25.75
2017-07-27T13:20:57.046Z,25.8
2017-07-27T13:22:06.714Z,25.79
2017-07-27T13:23:16.739Z,25.88
2017-07-27T13:24:26.743Z,25.83
2017-07-27T13:25:36.902Z,25.83
2017-07-27T13:26:46.256Z,25.9
2017-07-27T13:27:55.915Z,25.9
2017-07-27T13:29:05.286Z,25.9
2017-07-27T13:30:15.533Z,25.9
2017-07-27T13:31:25.502Z,25.94
2017-07-27T13:32:35.755Z,25.88
2017-07-27T13:33:45.381Z,25.92
2017-07-27T13:34:55.627Z,25.9
2017-07-27T13:36:05.557Z,25.91
2017-07-27T13:37:15.584Z,25.92
2017-07-27T13:38:25.832Z,25.92
2017-07-27T13:39:36.066Z,25.91
2017-07-27T13:40:45.700Z,25.91
2017-07-27T13:41:55.646Z,25.92
2017-07-27T13:43:05.883Z,25.88
2017-07-27T13:44:15.816Z,25.92
2017-07-27T13:45:25.756Z,25.9
2017-07-27T13:46:35.702Z,25.9
2017-07-27T13:47:45.347Z,25.91
2017-07-27T13:48:54.972Z,25.91
2017-07-27T13:50:04.906Z,25.91
2017-07-27T13:51:14.845Z,25.92
2017-07-27T13:52:24.462Z,25.83
2017-07-27T13:53:34.427Z,25.91
2017-07-27T13:54:44.660Z,25.85
2017-07-27T13:55:54.591Z,25.91
2017-07-27T13:57:04.226Z,25.88
2017-07-27T13:58:14.472Z,25.9
2017-07-27T13:59:24.405Z,25.87
2017-07-27T14:00:33.831Z,25.83
2017-07-27T14:01:43.763Z,25.8
2017-07-27T14:02:53.996Z,25.83
2017-07-27T14:04:03.638Z,25.8
2017-07-27T14:05:13.903Z,25.94
2017-07-27T14:06:23.375Z,25.92
2017-07-27T14:07:33.301Z,25.87
2017-07-27T14:08:42.933Z,25.95
2017-07-27T14:09:52.565Z,25.94
2017-07-27T14:11:01.874Z,25.91
2017-07-27T14:12:12.254Z,25.9
2017-07-27T14:13:22.487Z,25.98
2017-07-27T14:14:32.415Z,25.9
2017-07-27T14:15:42.655Z,25.88
2017-07-27T14:16:52.297Z,25.92
2017-07-27T14:18:02.069Z,25.91
2017-07-27T14:19:11.409Z,25.91
2017-07-27T14:20:21.054Z,25.94
2017-07-27T14:21:30.987Z,25.95
2017-07-27T14:22:41.238Z,25.91
2017-07-27T14:23:50.867Z,25.91
2017-07-27T14:25:00.815Z,25.92
2017-07-27T14:26:11.117Z,25.97
2017-07-27T14:27:20.734Z,25.94
2017-07-27T14:28:30.986Z,25.92
2017-07-27T14:29:40.150Z,25.97
2017-07-27T14:30:50.786Z,25.91
2017-07-27T14:32:00.711Z,25.95
2017-07-27T14:33:10.964Z,25.91
2017-07-27T14:34:20.901Z,25.99
2017-07-27T14:35:31.264Z,25.91
2017-07-27T14:36:41.518Z,25.94
2017-07-27T14:37:51.756Z,25.94
2017-07-27T14:39:01.691Z,25.94
2017-07-27T14:40:11.931Z,25.91
2017-07-27T14:41:22.175Z,25.95
2017-07-27T14:42:31.808Z,25.94
2017-07-27T14:43:41.431Z,25.9
2017-07-27T14:44:51.378Z,25.9
2017-07-27T14:46:01.298Z,25.88
2017-07-27T14:47:11.710Z,25.91
2017-07-27T14:48:21.953Z,25.9
2017-07-27T14:49:32.249Z,25.9
2017-07-27T14:50:42.506Z,25.91
2017-07-27T14:51:52.453Z,25.91
2017-07-27T14:53:02.380Z,25.88
2017-07-27T14:54:12.465Z,25.91
2017-07-27T14:55:22.697Z,25.92
2017-07-27T14:56:32.326Z,25.88
2017-07-27T14:57:42.562Z,25.88
2017-07-27T14:58:52.888Z,25.85
2017-07-27T15:00:02.817Z,25.94
2017-07-27T15:01:12.744Z,25.87
2017-07-27T15:02:22.741Z,25.9
2017-07-27T15:03:32.124Z,25.82
2017-07-27T15:04:42.353Z,25.79